Time;durP1;ratioP1;P1;durP2;ratioP2;P2;SDS_P1;SDS_P2;PMS_P1;PMS_P2;Temp;Humidity;BMP_temperature;BMP_pressure;BME280_temperature;BME280_humidity;BME280_pressure;Samples;Min_cycle;Max_cycle;Signal;HPM_P1;HPM_P2
2022/08/26 00:05:03;;;;;;;1.38;0.47;;;21.00;99.90;;;;;;20803188;28;20045;-82
2022/08/26 00:15:06;;;;;;;1.42;0.40;;;20.90;99.90;;;;;;20816663;28;20092;-80
2022/08/26 00:25:09;;;;;;;1.30;0.40;;;21.00;99.90;;;;;;20807269;28;20042;-81
2022/08/26 00:35:10;;;;;;;1.05;0.40;;;20.90;99.90;;;;;;20793556;28;20504;-81
2022/08/26 00:45:12;;;;;;;2.17;0.20;;;20.80;99.90;;;;;;20805667;28;20059;-81
2022/08/26 00:55:23;;;;;;;5.75;1.08;;;20.80;99.90;;;;;;20777829;28;20033;-81
2022/08/26 01:05:24;;;;;;;1.38;0.20;;;20.80;99.90;;;;;;20774893;28;20421;-81
2022/08/26 01:15:31;;;;;;;0.47;0.20;;;20.80;99.90;;;;;;20785528;28;20123;-80
2022/08/26 01:25:35;;;;;;;1.23;0.40;;;20.70;99.90;;;;;;20750214;28;20038;-81
2022/08/26 01:35:36;;;;;;;0.32;0.20;;;20.60;99.90;;;;;;20812924;28;20701;-81
2022/08/26 01:45:39;;;;;;;2.85;0.28;;;20.70;99.90;;;;;;20776700;28;20037;-81
2022/08/26 01:55:45;;;;;;;1.17;0.55;;;20.60;99.90;;;;;;20793792;28;20033;-80
2022/08/26 02:06:03;;;;;;;1.35;0.38;;;20.60;99.90;;;;;;20789123;28;20068;-81
2022/08/26 02:16:05;;;;;;;1.08;0.30;;;20.60;99.90;;;;;;20814579;28;20025;-80
2022/08/26 02:26:13;;;;;;;0.77;0.25;;;20.50;99.90;;;;;;20796486;28;20062;-81
2022/08/26 02:36:20;;;;;;;;;;;20.50;99.90;;;;;;20790679;28;20452;-81
2022/08/26 02:46:21;;;;;;;0.52;0.20;;;20.40;99.90;;;;;;20819776;28;20363;-81
2022/08/26 02:56:22;;;;;;;0.80;0.30;;;20.40;99.90;;;;;;20819279;28;20038;-81
2022/08/26 03:06:24;;;;;;;2.28;0.88;;;20.40;99.90;;;;;;20786987;28;20123;-81
2022/08/26 03:16:25;;;;;;;0.82;0.20;;;20.30;99.90;;;;;;20788535;28;20606;-81
2022/08/26 03:26:27;;;;;;;0.75;0.40;;;20.30;99.90;;;;;;20789854;28;20448;-81
2022/08/26 03:36:28;;;;;;;0.90;0.20;;;20.30;99.90;;;;;;20786364;28;20049;-81
2022/08/26 03:46:34;;;;;;;0.93;0.20;;;20.30;99.90;;;;;;20827555;28;20079;-81
2022/08/26 03:56:35;;;;;;;2.20;1.30;;;20.20;99.90;;;;;;20776938;28;20158;-81
2022/08/26 04:06:41;;;;;;;0.40;0.20;;;20.20;99.90;;;;;;20796508;28;20033;-81
2022/08/26 04:16:42;;;;;;;0.30;0.20;;;20.20;99.90;;;;;;20785645;28;20099;-81
2022/08/26 04:26:43;;;;;;;0.75;0.10;;;20.10;99.90;;;;;;20790012;28;20045;-79
2022/08/26 04:36:44;;;;;;;0.80;0.28;;;20.00;99.90;;;;;;20784542;28;20034;-79
2022/08/26 04:46:45;;;;;;;1.58;0.73;;;19.90;99.90;;;;;;20773386;28;20740;-78
2022/08/26 04:56:48;;;;;;;0.47;0.38;;;19.80;99.90;;;;;;20799609;28;20034;-79
2022/08/26 05:06:49;;;;;;;0.77;0.20;;;19.70;99.90;;;;;;20808218;28;20521;-78
2022/08/26 05:16:51;;;;;;;1.05;0.35;;;19.50;99.90;;;;;;20769499;28;20041;-79
2022/08/26 05:26:52;;;;;;;1.25;0.20;;;19.50;99.90;;;;;;20826732;28;20092;-79
2022/08/26 05:36:53;;;;;;;2.83;0.75;;;19.60;99.90;;;;;;20801639;28;20041;-79
2022/08/26 05:46:54;;;;;;;1.27;0.52;;;19.70;99.90;;;;;;20798712;28;20038;-79
2022/08/26 05:56:56;;;;;;;1.17;0.63;;;19.70;99.90;;;;;;20777737;28;20701;-79
2022/08/26 06:06:58;;;;;;;0.65;0.13;;;19.90;99.90;;;;;;20809432;28;20400;-79
2022/08/26 06:16:59;;;;;;;0.28;0.13;;;20.10;99.90;;;;;;20779261;28;20430;-79
2022/08/26 06:27:03;;;;;;;0.30;0.10;;;20.30;99.90;;;;;;20800561;28;20037;-78
2022/08/26 06:37:05;;;;;;;1.85;0.52;;;20.30;99.90;;;;;;20809547;28;20049;-79
2022/08/26 06:47:06;;;;;;;1.48;0.40;;;20.50;99.90;;;;;;20790094;28;20033;-81
2022/08/26 06:57:07;;;;;;;1.58;0.20;;;20.60;99.90;;;;;;20795653;28;20169;-81
2022/08/26 07:07:13;;;;;;;6.95;0.68;;;20.50;99.90;;;;;;20803381;28;20021;-81
2022/08/26 07:17:14;;;;;;;0.43;0.20;;;20.40;99.90;;;;;;20803770;28;20029;-81
2022/08/26 07:27:16;;;;;;;0.80;0.20;;;20.50;99.90;;;;;;20819754;28;20639;-81
2022/08/26 07:37:17;;;;;;;0.43;0.03;;;20.40;99.90;;;;;;20790145;28;20048;-81
2022/08/26 07:47:18;;;;;;;0.55;0.20;;;20.40;99.90;;;;;;20811956;28;20045;-81
2022/08/26 07:57:19;;;;;;;2.30;0.35;;;20.30;99.90;;;;;;20799844;28;20519;-81
2022/08/26 08:07:21;;;;;;;2.08;0.30;;;20.30;99.90;;;;;;20816457;28;20029;-81
2022/08/26 08:17:22;;;;;;;1.40;0.30;;;20.50;99.90;;;;;;20822075;28;20084;-81
2022/08/26 08:27:24;;;;;;;1.20;0.65;;;20.70;99.90;;;;;;20810129;28;20041;-81
2022/08/26 08:37:25;;;;;;;0.75;0.13;;;20.80;99.90;;;;;;20828440;28;20088;-81
2022/08/26 08:47:37;;;;;;;0.43;0.10;;;21.00;99.90;;;;;;20820614;28;20030;-81
2022/08/26 08:58:04;;;;;;;0.30;0.08;;;21.20;99.90;;;;;;20845787;28;20033;-80
2022/08/26 09:08:15;;;;;;;4.43;0.20;;;21.30;99.90;;;;;;20793938;28;20034;-81
2022/08/26 09:18:24;;;;;;;0.38;0.03;;;21.30;99.90;;;;;;20807886;28;20388;-81
2022/08/26 09:28:28;;;;;;;0.70;0.20;;;21.20;99.90;;;;;;20835615;28;20632;-81
2022/08/26 09:38:33;;;;;;;0.20;0.10;;;21.00;99.90;;;;;;20813090;28;20408;-81
2022/08/26 09:48:38;;;;;;;1.35;0.10;;;21.00;99.90;;;;;;20802486;28;20102;-81
2022/08/26 09:58:42;;;;;;;0.30;0.08;;;20.90;99.90;;;;;;20813736;28;20082;-81
2022/08/26 10:08:47;;;;;;;2.83;0.30;;;21.10;99.90;;;;;;20818283;28;20046;-81
2022/08/26 10:19:07;;;;;;;0.13;0.10;;;21.10;99.90;;;;;;20797971;28;20034;-80
2022/08/26 10:29:14;;;;;;;0.90;0.10;;;21.20;99.90;;;;;;20801196;28;20032;-81
2022/08/26 10:39:30;;;;;;;;;;;21.20;99.90;;;;;;20831616;28;21596;-81
2022/08/26 10:49:31;;;;;;;0.40;0.20;;;21.20;99.90;;;;;;20836264;28;19916;-81
2022/08/26 11:01:40;;;;;;;0.57;0.30;;;21.40;99.90;;;;;;20783369;28;20056;-81
2022/08/26 11:10:59;;;;;;;1.05;0.65;;;21.40;99.90;;;;;;20811729;28;20563;-81
2022/08/26 11:21:00;;;;;;;0.45;0.13;;;21.30;99.90;;;;;;20754855;28;20033;-81
2022/08/26 11:31:04;;;;;;;0.95;0.20;;;21.20;99.90;;;;;;20789007;28;20487;-81
2022/08/26 11:41:10;;;;;;;2.20;0.20;;;21.40;99.90;;;;;;20786779;28;20053;-81
2022/08/26 11:51:19;;;;;;;0.77;0.20;;;21.60;99.90;;;;;;20775580;28;20630;-80
2022/08/26 12:01:34;;;;;;;1.70;0.25;;;21.70;99.90;;;;;;20799290;28;20566;-80
2022/08/26 12:11:38;;;;;;;0.70;0.20;;;21.60;99.90;;;;;;20789735;28;22512;-81
2022/08/26 12:21:39;;;;;;;1.20;0.35;;;21.80;99.90;;;;;;20784861;28;20029;-80
2022/08/26 12:31:42;;;;;;;0.68;0.17;;;21.60;99.90;;;;;;20806548;28;20072;-80
2022/08/26 12:41:48;;;;;;;0.70;0.20;;;21.40;99.90;;;;;;20797320;28;20505;-80
2022/08/26 12:51:49;;;;;;;0.28;0.10;;;21.60;99.90;;;;;;20791453;28;20095;-80
2022/08/26 13:01:51;;;;;;;0.45;0.20;;;21.50;99.90;;;;;;20807203;28;20102;-80
2022/08/26 13:11:52;;;;;;;0.40;0.20;;;21.30;99.90;;;;;;20780889;28;20060;-81
2022/08/26 13:21:56;;;;;;;0.73;0.60;;;21.10;99.90;;;;;;20789024;28;20029;-81
2022/08/26 13:31:57;;;;;;;1.67;0.50;;;21.20;99.90;;;;;;20805462;28;20034;-81
2022/08/26 13:41:59;;;;;;;1.23;0.40;;;21.00;99.90;;;;;;20798628;28;20054;-81
2022/08/26 13:52:02;;;;;;;0.75;0.20;;;21.00;99.90;;;;;;20818225;28;20033;-81
2022/08/26 14:02:03;;;;;;;0.73;0.20;;;20.90;99.90;;;;;;20834772;28;20091;-81
2022/08/26 14:12:04;;;;;;;0.55;0.10;;;20.80;99.90;;;;;;20806587;28;20034;-81
2022/08/26 14:22:05;;;;;;;1.10;0.50;;;20.90;99.90;;;;;;20814641;28;20050;-81
2022/08/26 14:32:11;;;;;;;1.77;0.77;;;20.90;99.90;;;;;;20806056;28;20036;-81
2022/08/26 14:42:15;;;;;;;0.82;0.32;;;21.00;99.90;;;;;;20804837;28;20041;-81
2022/08/26 14:52:16;;;;;;;2.08;0.43;;;21.20;99.90;;;;;;20832745;28;20640;-81
2022/08/26 15:02:17;;;;;;;0.98;0.28;;;21.30;99.90;;;;;;20834177;28;20029;-81
2022/08/26 15:12:18;;;;;;;1.30;0.55;;;21.60;99.90;;;;;;20790836;28;20476;-81
2022/08/26 15:22:19;;;;;;;0.88;0.17;;;21.50;99.90;;;;;;20797318;28;20387;-81
2022/08/26 15:32:20;;;;;;;0.98;0.35;;;21.30;99.90;;;;;;20791813;28;20038;-81
2022/08/26 15:42:22;;;;;;;0.40;0.20;;;21.60;99.90;;;;;;20816260;28;20041;-81
2022/08/26 15:52:24;;;;;;;1.15;0.40;;;21.90;99.90;;;;;;20801361;28;20139;-81
2022/08/26 16:02:25;;;;;;;0.55;0.20;;;22.30;99.90;;;;;;20787282;28;20068;-81
2022/08/26 16:12:26;;;;;;;1.83;0.30;;;22.10;99.90;;;;;;20783145;28;20119;-80
2022/08/26 16:22:28;;;;;;;2.50;0.85;;;22.00;99.90;;;;;;20808884;28;20045;-80
2022/08/26 16:32:29;;;;;;;0.88;0.30;;;21.60;99.90;;;;;;20779803;28;20042;-81
2022/08/26 16:42:31;;;;;;;0.90;0.50;;;21.30;99.90;;;;;;20805797;28;20038;-81
2022/08/26 16:52:32;;;;;;;0.60;0.20;;;21.30;99.90;;;;;;20773548;28;20041;-81
2022/08/26 17:02:33;;;;;;;0.95;0.20;;;21.00;99.90;;;;;;20800508;28;20045;-81
2022/08/26 17:12:35;;;;;;;0.70;0.20;;;20.70;99.90;;;;;;20814601;28;20038;-81
2022/08/26 17:22:38;;;;;;;0.43;0.20;;;20.60;99.90;;;;;;20807779;28;20944;-81
2022/08/26 17:32:41;;;;;;;1.73;0.20;;;20.60;99.90;;;;;;20825785;28;20488;-80
2022/08/26 17:42:42;;;;;;;2.88;1.05;;;20.50;99.90;;;;;;20801691;28;20115;-80
2022/08/26 17:52:43;;;;;;;0.32;0.17;;;20.50;99.90;;;;;;20796922;28;20025;-81
2022/08/26 18:02:44;;;;;;;1.05;0.40;;;20.30;99.90;;;;;;20792284;28;20156;-81
2022/08/26 18:12:46;;;;;;;1.40;0.30;;;20.00;99.90;;;;;;20783770;28;20158;-79
2022/08/26 18:22:47;;;;;;;0.95;0.30;;;19.80;99.90;;;;;;20790328;28;20041;-81
2022/08/26 18:32:50;;;;;;;1.98;0.40;;;19.50;99.90;;;;;;20790831;28;20539;-79
2022/08/26 18:42:51;;;;;;;1.00;0.40;;;19.40;99.90;;;;;;20776795;28;20044;-79
2022/08/26 18:52:52;;;;;;;0.95;0.30;;;19.20;99.90;;;;;;20786778;28;20034;-79
2022/08/26 19:02:54;;;;;;;0.95;0.28;;;19.10;99.90;;;;;;20805511;28;20042;-79
2022/08/26 19:12:56;;;;;;;0.85;0.20;;;18.90;99.90;;;;;;20788078;28;20029;-79
2022/08/26 19:22:57;;;;;;;1.25;0.63;;;18.70;99.90;;;;;;20794399;28;20033;-79
2022/08/26 19:32:58;;;;;;;7.70;1.63;;;18.60;99.90;;;;;;20814751;28;20037;-80
2022/08/26 19:42:59;;;;;;;1.27;0.43;;;18.40;99.90;;;;;;20771416;28;20052;-80
2022/08/26 19:53:02;;;;;;;1.00;0.30;;;18.40;99.90;;;;;;20829657;28;20033;-80
2022/08/26 20:03:03;;;;;;;1.02;0.22;;;18.30;99.90;;;;;;20806771;28;20103;-80
2022/08/26 20:13:04;;;;;;;0.80;0.35;;;18.10;99.90;;;;;;20825659;28;20037;-79
2022/08/26 20:23:07;;;;;;;1.17;0.30;;;17.90;99.90;;;;;;20783356;28;20392;-80
2022/08/26 20:33:08;;;;;;;0.95;0.40;;;17.80;99.90;;;;;;20798441;28;20095;-80
2022/08/26 20:43:09;;;;;;;2.78;0.50;;;17.70;99.90;;;;;;20735865;28;1251214;-80
2022/08/26 20:53:10;;;;;;;0.55;0.45;;;17.60;99.90;;;;;;20793477;28;20050;-80
2022/08/26 21:03:13;;;;;;;1.55;0.47;;;17.50;99.90;;;;;;20775978;28;20038;-80
2022/08/26 21:13:14;;;;;;;0.73;0.20;;;17.40;99.90;;;;;;20780696;28;20037;-80
2022/08/26 21:23:15;;;;;;;1.58;0.60;;;17.30;99.90;;;;;;20804599;28;20072;-80
2022/08/26 21:33:16;;;;;;;1.08;0.30;;;17.20;99.90;;;;;;20800550;28;20041;-80
2022/08/26 21:43:17;;;;;;;1.10;0.40;;;17.10;99.90;;;;;;20784332;28;20186;-80
2022/08/26 21:53:18;;;;;;;0.73;0.28;;;17.10;99.90;;;;;;20790244;28;20040;-80
2022/08/26 22:03:19;;;;;;;0.75;0.28;;;17.00;99.90;;;;;;20795978;28;20038;-80
2022/08/26 22:13:28;;;;;;;1.17;0.50;;;16.80;99.90;;;;;;20809191;28;20033;-81
2022/08/26 22:23:29;;;;;;;0.90;0.40;;;16.60;99.90;;;;;;20797700;28;20037;-79
2022/08/26 22:33:30;;;;;;;1.30;0.50;;;16.50;99.90;;;;;;20788357;28;20029;-80
2022/08/26 22:43:31;;;;;;;1.35;0.45;;;16.40;99.90;;;;;;20798823;28;20654;-80
2022/08/26 22:53:32;;;;;;;2.78;0.65;;;16.40;99.90;;;;;;20785193;28;20385;-80
2022/08/26 23:03:34;;;;;;;1.95;0.80;;;16.40;99.90;;;;;;20799481;28;20122;-81
2022/08/26 23:13:36;;;;;;;1.33;0.55;;;16.30;99.90;;;;;;20783909;28;20037;-80
2022/08/26 23:23:37;;;;;;;1.90;1.10;;;16.30;99.90;;;;;;20788316;28;20090;-80
2022/08/26 23:43:58;;;;;;;2.03;0.73;;;16.50;99.90;;;;;;20791707;28;20640;-81
2022/08/26 23:53:59;;;;;;;1.98;0.70;;;16.60;99.90;;;;;;20771376;28;20025;-80
